Lanark Village, Florida
Current Conditions -  °F | °C
As of 12:01 PM on Sunday 23 Nov 2014 (Local Time) from KAAF Reporting Station
Haze Haze  
Wind Chill: 73°   Ceiling: 400
Heat Index: 73°   Visibility: 4mi
Dew Point: 69°   Wind: 17mph
Humidity: 87%   Direction: 160°SSE
Pressure: 29.83"   Gusts: NA
Location:  29.88°N, 84.6°W
Report Text: KAAF 231701Z AUTO 16015KT 4SM BR OVC004 23/21 A2983 RMK AO2 T02280206 TSNO
Loading
Personal Weather Stations






























Interactive Weather Map New forecast layout! Learn more

10-Day Weather Forecast

Advertisements
Track Severe Weather on mobile